sensor_id;sensor_type;location;lat;lon;timestamp;P1;durP1;ratioP1;P2;durP2;ratioP2
71048;SDS011;58704;53.358;-6.238;2022-07-22T00:01:18;6.18;;;1.92;;
71048;SDS011;58704;53.358;-6.238;2022-07-22T00:03:44;10.30;;;2.03;;
71048;SDS011;58704;53.358;-6.238;2022-07-22T00:06:10;4.70;;;1.70;;
71048;SDS011;58704;53.358;-6.238;2022-07-22T00:08:35;6.10;;;2.43;;
71048;SDS011;58704;53.358;-6.238;2022-07-22T00:11:01;3.80;;;1.87;;
71048;SDS011;58704;53.358;-6.238;2022-07-22T00:13:26;4.35;;;1.75;;
71048;SDS011;58704;53.358;-6.238;2022-07-22T00:15:51;3.97;;;1.87;;
71048;SDS011;58704;53.358;-6.238;2022-07-22T00:18:17;5.20;;;1.50;;
71048;SDS011;58704;53.358;-6.238;2022-07-22T00:20:42;3.33;;;1.40;;
71048;SDS011;58704;53.358;-6.238;2022-07-22T00:23:08;5.30;;;1.92;;
71048;SDS011;58704;53.358;-6.238;2022-07-22T00:25:33;6.53;;;1.57;;
71048;SDS011;58704;53.358;-6.238;2022-07-22T00:27:59;4.63;;;1.85;;
71048;SDS011;58704;53.358;-6.238;2022-07-22T00:30:24;4.10;;;1.67;;
71048;SDS011;58704;53.358;-6.238;2022-07-22T00:32:50;6.87;;;1.53;;
71048;SDS011;58704;53.358;-6.238;2022-07-22T00:35:15;2.67;;;1.40;;
71048;SDS011;58704;53.358;-6.238;2022-07-22T00:37:42;3.95;;;1.30;;
71048;SDS011;58704;53.358;-6.238;2022-07-22T00:40:07;5.90;;;1.50;;
71048;SDS011;58704;53.358;-6.238;2022-07-22T00:42:33;4.50;;;1.45;;
71048;SDS011;58704;53.358;-6.238;2022-07-22T00:44:59;2.47;;;1.60;;
71048;SDS011;58704;53.358;-6.238;2022-07-22T00:47:25;3.00;;;1.43;;
71048;SDS011;58704;53.358;-6.238;2022-07-22T00:49:50;5.63;;;1.70;;
71048;SDS011;58704;53.358;-6.238;2022-07-22T00:52:15;4.30;;;1.20;;
71048;SDS011;58704;53.358;-6.238;2022-07-22T00:54:43;4.73;;;1.40;;
71048;SDS011;58704;53.358;-6.238;2022-07-22T00:57:08;5.78;;;1.73;;
71048;SDS011;58704;53.358;-6.238;2022-07-22T00:59:34;3.97;;;1.40;;
71048;SDS011;58704;53.358;-6.238;2022-07-22T01:01:59;3.03;;;1.40;;
71048;SDS011;58704;53.358;-6.238;2022-07-22T01:04:25;5.03;;;1.80;;
71048;SDS011;58704;53.358;-6.238;2022-07-22T01:06:50;3.28;;;1.40;;
71048;SDS011;58704;53.358;-6.238;2022-07-22T01:09:15;4.93;;;1.47;;
71048;SDS011;58704;53.358;-6.238;2022-07-22T01:11:41;2.20;;;1.10;;
71048;SDS011;58704;53.358;-6.238;2022-07-22T01:14:06;3.70;;;1.70;;
71048;SDS011;58704;53.358;-6.238;2022-07-22T01:16:32;3.27;;;1.50;;
71048;SDS011;58704;53.358;-6.238;2022-07-22T01:18:57;2.63;;;1.10;;
71048;SDS011;58704;53.358;-6.238;2022-07-22T01:21:23;3.83;;;1.47;;
71048;SDS011;58704;53.358;-6.238;2022-07-22T01:23:48;5.28;;;1.20;;
71048;SDS011;58704;53.358;-6.238;2022-07-22T01:26:14;5.37;;;1.90;;
71048;SDS011;58704;53.358;-6.238;2022-07-22T01:28:40;4.88;;;1.40;;
71048;SDS011;58704;53.358;-6.238;2022-07-22T01:31:06;3.70;;;1.27;;
71048;SDS011;58704;53.358;-6.238;2022-07-22T01:33:32;4.63;;;1.40;;
71048;SDS011;58704;53.358;-6.238;2022-07-22T01:35:58;2.15;;;1.25;;
71048;SDS011;58704;53.358;-6.238;2022-07-22T01:38:23;3.63;;;1.30;;
71048;SDS011;58704;53.358;-6.238;2022-07-22T01:40:49;4.32;;;1.60;;
71048;SDS011;58704;53.358;-6.238;2022-07-22T01:43:14;3.90;;;1.27;;
71048;SDS011;58704;53.358;-6.238;2022-07-22T01:45:42;4.35;;;1.42;;
71048;SDS011;58704;53.358;-6.238;2022-07-22T01:48:11;3.70;;;1.30;;
71048;SDS011;58704;53.358;-6.238;2022-07-22T01:50:37;3.80;;;1.42;;
71048;SDS011;58704;53.358;-6.238;2022-07-22T01:53:02;4.50;;;1.53;;
71048;SDS011;58704;53.358;-6.238;2022-07-22T01:55:27;4.53;;;1.80;;
71048;SDS011;58704;53.358;-6.238;2022-07-22T01:57:53;4.20;;;1.27;;
71048;SDS011;58704;53.358;-6.238;2022-07-22T02:00:18;2.97;;;1.40;;
71048;SDS011;58704;53.358;-6.238;2022-07-22T02:02:44;3.20;;;1.30;;
71048;SDS011;58704;53.358;-6.238;2022-07-22T02:05:09;4.35;;;1.42;;
71048;SDS011;58704;53.358;-6.238;2022-07-22T02:07:35;4.37;;;1.80;;
71048;SDS011;58704;53.358;-6.238;2022-07-22T02:10:00;3.07;;;1.87;;
71048;SDS011;58704;53.358;-6.238;2022-07-22T02:12:26;5.82;;;1.52;;
71048;SDS011;58704;53.358;-6.238;2022-07-22T02:14:51;2.67;;;1.40;;
71048;SDS011;58704;53.358;-6.238;2022-07-22T02:17:17;4.70;;;1.50;;
71048;SDS011;58704;53.358;-6.238;2022-07-22T02:19:43;3.30;;;1.33;;
71048;SDS011;58704;53.358;-6.238;2022-07-22T02:22:08;3.77;;;1.30;;
71048;SDS011;58704;53.358;-6.238;2022-07-22T02:24:34;4.28;;;1.40;;
71048;SDS011;58704;53.358;-6.238;2022-07-22T02:26:59;4.60;;;1.57;;
71048;SDS011;58704;53.358;-6.238;2022-07-22T02:29:26;5.22;;;1.63;;
71048;SDS011;58704;53.358;-6.238;2022-07-22T02:31:51;3.53;;;1.40;;
71048;SDS011;58704;53.358;-6.238;2022-07-22T02:34:17;6.00;;;1.60;;
71048;SDS011;58704;53.358;-6.238;2022-07-22T02:36:42;4.90;;;1.40;;
71048;SDS011;58704;53.358;-6.238;2022-07-22T02:39:08;2.83;;;1.10;;
71048;SDS011;58704;53.358;-6.238;2022-07-22T02:41:33;6.10;;;1.30;;
71048;SDS011;58704;53.358;-6.238;2022-07-22T02:43:59;2.88;;;1.50;;
71048;SDS011;58704;53.358;-6.238;2022-07-22T02:46:25;5.13;;;1.60;;
71048;SDS011;58704;53.358;-6.238;2022-07-22T02:48:51;5.68;;;1.73;;
71048;SDS011;58704;53.358;-6.238;2022-07-22T02:51:17;4.23;;;1.53;;
71048;SDS011;58704;53.358;-6.238;2022-07-22T02:53:42;4.30;;;1.52;;
71048;SDS011;58704;53.358;-6.238;2022-07-22T02:56:08;4.33;;;1.43;;
71048;SDS011;58704;53.358;-6.238;2022-07-22T02:58:33;3.43;;;1.40;;
71048;SDS011;58704;53.358;-6.238;2022-07-22T03:00:58;1.73;;;1.40;;
71048;SDS011;58704;53.358;-6.238;2022-07-22T03:03:24;5.47;;;1.73;;
71048;SDS011;58704;53.358;-6.238;2022-07-22T03:05:49;1.93;;;1.30;;
71048;SDS011;58704;53.358;-6.238;2022-07-22T03:08:15;3.57;;;1.50;;
71048;SDS011;58704;53.358;-6.238;2022-07-22T03:10:41;2.72;;;1.48;;
71048;SDS011;58704;53.358;-6.238;2022-07-22T03:13:06;5.60;;;1.70;;
71048;SDS011;58704;53.358;-6.238;2022-07-22T03:15:31;4.60;;;1.40;;
71048;SDS011;58704;53.358;-6.238;2022-07-22T03:17:57;3.53;;;1.63;;
71048;SDS011;58704;53.358;-6.238;2022-07-22T03:20:22;3.47;;;1.52;;
71048;SDS011;58704;53.358;-6.238;2022-07-22T03:22:48;5.70;;;1.33;;
71048;SDS011;58704;53.358;-6.238;2022-07-22T03:25:13;4.77;;;1.37;;
71048;SDS011;58704;53.358;-6.238;2022-07-22T03:27:38;7.80;;;1.80;;
71048;SDS011;58704;53.358;-6.238;2022-07-22T03:30:04;3.97;;;1.40;;
71048;SDS011;58704;53.358;-6.238;2022-07-22T03:32:30;2.53;;;1.60;;
71048;SDS011;58704;53.358;-6.238;2022-07-22T03:34:56;7.20;;;1.70;;
71048;SDS011;58704;53.358;-6.238;2022-07-22T03:37:21;6.67;;;1.80;;
71048;SDS011;58704;53.358;-6.238;2022-07-22T03:39:47;6.53;;;1.77;;
71048;SDS011;58704;53.358;-6.238;2022-07-22T03:42:12;4.83;;;1.33;;
71048;SDS011;58704;53.358;-6.238;2022-07-22T03:44:37;4.88;;;1.50;;
71048;SDS011;58704;53.358;-6.238;2022-07-22T03:47:03;2.97;;;1.37;;
71048;SDS011;58704;53.358;-6.238;2022-07-22T03:49:29;5.70;;;1.40;;
71048;SDS011;58704;53.358;-6.238;2022-07-22T03:51:55;6.18;;;1.50;;
71048;SDS011;58704;53.358;-6.238;2022-07-22T03:54:20;4.13;;;1.70;;
71048;SDS011;58704;53.358;-6.238;2022-07-22T03:56:46;2.60;;;1.37;;
71048;SDS011;58704;53.358;-6.238;2022-07-22T03:59:11;3.23;;;1.50;;
71048;SDS011;58704;53.358;-6.238;2022-07-22T04:01:36;3.67;;;1.53;;
71048;SDS011;58704;53.358;-6.238;2022-07-22T04:04:02;6.33;;;1.63;;
71048;SDS011;58704;53.358;-6.238;2022-07-22T04:06:27;2.67;;;1.50;;
71048;SDS011;58704;53.358;-6.238;2022-07-22T04:08:53;2.72;;;1.50;;
71048;SDS011;58704;53.358;-6.238;2022-07-22T04:11:19;4.73;;;1.60;;
71048;SDS011;58704;53.358;-6.238;2022-07-22T04:13:45;5.68;;;1.80;;
71048;SDS011;58704;53.358;-6.238;2022-07-22T04:16:10;7.47;;;1.60;;
71048;SDS011;58704;53.358;-6.238;2022-07-22T04:18:36;3.77;;;1.40;;
71048;SDS011;58704;53.358;-6.238;2022-07-22T04:21:01;3.40;;;1.60;;
71048;SDS011;58704;53.358;-6.238;2022-07-22T04:23:26;2.72;;;1.20;;
71048;SDS011;58704;53.358;-6.238;2022-07-22T04:25:52;4.07;;;2.07;;
71048;SDS011;58704;53.358;-6.238;2022-07-22T04:28:17;5.80;;;1.37;;
71048;SDS011;58704;53.358;-6.238;2022-07-22T04:30:43;2.60;;;1.30;;
71048;SDS011;58704;53.358;-6.238;2022-07-22T04:33:08;5.10;;;1.77;;
71048;SDS011;58704;53.358;-6.238;2022-07-22T04:35:33;5.70;;;1.80;;
71048;SDS011;58704;53.358;-6.238;2022-07-22T04:37:59;4.47;;;1.53;;
71048;SDS011;58704;53.358;-6.238;2022-07-22T04:40:24;2.67;;;1.80;;
71048;SDS011;58704;53.358;-6.238;2022-07-22T04:42:49;6.33;;;1.43;;
71048;SDS011;58704;53.358;-6.238;2022-07-22T04:45:15;7.93;;;2.00;;
71048;SDS011;58704;53.358;-6.238;2022-07-22T04:47:40;3.13;;;1.67;;
71048;SDS011;58704;53.358;-6.238;2022-07-22T04:50:06;5.43;;;1.60;;
71048;SDS011;58704;53.358;-6.238;2022-07-22T04:52:32;3.22;;;1.80;;
71048;SDS011;58704;53.358;-6.238;2022-07-22T04:54:57;4.53;;;1.80;;
71048;SDS011;58704;53.358;-6.238;2022-07-22T04:57:24;4.97;;;2.00;;
71048;SDS011;58704;53.358;-6.238;2022-07-22T04:59:50;3.70;;;1.80;;
71048;SDS011;58704;53.358;-6.238;2022-07-22T05:02:15;3.85;;;1.65;;
71048;SDS011;58704;53.358;-6.238;2022-07-22T05:04:41;5.03;;;1.67;;
71048;SDS011;58704;53.358;-6.238;2022-07-22T05:07:07;6.22;;;2.28;;
71048;SDS011;58704;53.358;-6.238;2022-07-22T05:09:32;6.30;;;2.40;;
71048;SDS011;58704;53.358;-6.238;2022-07-22T05:11:58;5.80;;;1.83;;
71048;SDS011;58704;53.358;-6.238;2022-07-22T05:14:23;3.50;;;1.97;;
71048;SDS011;58704;53.358;-6.238;2022-07-22T05:16:48;6.45;;;2.00;;
71048;SDS011;58704;53.358;-6.238;2022-07-22T05:19:14;4.07;;;2.13;;
71048;SDS011;58704;53.358;-6.238;2022-07-22T05:21:39;3.20;;;1.90;;
71048;SDS011;58704;53.358;-6.238;2022-07-22T05:24:05;5.57;;;2.47;;
71048;SDS011;58704;53.358;-6.238;2022-07-22T05:26:30;8.82;;;2.05;;
71048;SDS011;58704;53.358;-6.238;2022-07-22T05:28:57;4.33;;;2.13;;
71048;SDS011;58704;53.358;-6.238;2022-07-22T05:31:22;2.38;;;1.73;;
71048;SDS011;58704;53.358;-6.238;2022-07-22T05:33:48;5.00;;;1.77;;
71048;SDS011;58704;53.358;-6.238;2022-07-22T05:36:14;5.13;;;2.17;;
71048;SDS011;58704;53.358;-6.238;2022-07-22T05:38:39;5.78;;;2.17;;
71048;SDS011;58704;53.358;-6.238;2022-07-22T05:41:04;6.83;;;2.30;;
71048;SDS011;58704;53.358;-6.238;2022-07-22T05:43:30;3.67;;;1.90;;
71048;SDS011;58704;53.358;-6.238;2022-07-22T05:45:55;6.70;;;2.00;;
71048;SDS011;58704;53.358;-6.238;2022-07-22T05:48:21;4.10;;;1.73;;
71048;SDS011;58704;53.358;-6.238;2022-07-22T05:50:46;5.40;;;2.00;;
71048;SDS011;58704;53.358;-6.238;2022-07-22T05:53:12;5.43;;;2.23;;
71048;SDS011;58704;53.358;-6.238;2022-07-22T05:55:37;10.13;;;2.10;;
71048;SDS011;58704;53.358;-6.238;2022-07-22T05:58:03;3.50;;;1.80;;
71048;SDS011;58704;53.358;-6.238;2022-07-22T06:00:28;3.43;;;1.77;;
71048;SDS011;58704;53.358;-6.238;2022-07-22T06:02:53;4.70;;;2.47;;
71048;SDS011;58704;53.358;-6.238;2022-07-22T06:05:19;6.53;;;2.20;;
71048;SDS011;58704;53.358;-6.238;2022-07-22T06:07:45;2.60;;;1.60;;
71048;SDS011;58704;53.358;-6.238;2022-07-22T06:10:10;6.35;;;2.45;;
71048;SDS011;58704;53.358;-6.238;2022-07-22T06:12:36;4.87;;;2.10;;
71048;SDS011;58704;53.358;-6.238;2022-07-22T06:15:01;8.80;;;2.37;;
71048;SDS011;58704;53.358;-6.238;2022-07-22T06:17:27;11.33;;;1.87;;
71048;SDS011;58704;53.358;-6.238;2022-07-22T06:19:52;4.57;;;2.10;;
71048;SDS011;58704;53.358;-6.238;2022-07-22T06:22:17;6.20;;;2.30;;
71048;SDS011;58704;53.358;-6.238;2022-07-22T06:24:43;4.23;;;2.20;;
71048;SDS011;58704;53.358;-6.238;2022-07-22T06:27:09;6.35;;;2.00;;
71048;SDS011;58704;53.358;-6.238;2022-07-22T06:29:35;5.20;;;2.00;;
71048;SDS011;58704;53.358;-6.238;2022-07-22T06:32:00;8.77;;;2.57;;
71048;SDS011;58704;53.358;-6.238;2022-07-22T06:34:26;4.53;;;2.20;;
71048;SDS011;58704;53.358;-6.238;2022-07-22T06:36:51;5.55;;;1.90;;
71048;SDS011;58704;53.358;-6.238;2022-07-22T06:39:17;4.90;;;2.07;;
71048;SDS011;58704;53.358;-6.238;2022-07-22T06:41:42;6.83;;;2.10;;
71048;SDS011;58704;53.358;-6.238;2022-07-22T06:44:08;5.10;;;1.90;;
71048;SDS011;58704;53.358;-6.238;2022-07-22T06:46:33;10.75;;;2.38;;
71048;SDS011;58704;53.358;-6.238;2022-07-22T06:48:59;5.60;;;2.07;;
71048;SDS011;58704;53.358;-6.238;2022-07-22T06:51:24;6.80;;;2.50;;
71048;SDS011;58704;53.358;-6.238;2022-07-22T06:53:49;7.07;;;2.00;;
71048;SDS011;58704;53.358;-6.238;2022-07-22T06:56:15;7.27;;;1.90;;
71048;SDS011;58704;53.358;-6.238;2022-07-22T06:58:40;4.82;;;2.40;;
71048;SDS011;58704;53.358;-6.238;2022-07-22T07:01:05;8.87;;;3.07;;
71048;SDS011;58704;53.358;-6.238;2022-07-22T07:03:31;5.17;;;2.13;;
71048;SDS011;58704;53.358;-6.238;2022-07-22T07:05:56;3.73;;;1.97;;
71048;SDS011;58704;53.358;-6.238;2022-07-22T07:08:22;6.72;;;2.20;;
71048;SDS011;58704;53.358;-6.238;2022-07-22T07:10:47;7.77;;;2.30;;
71048;SDS011;58704;53.358;-6.238;2022-07-22T07:13:13;6.80;;;2.13;;
71048;SDS011;58704;53.358;-6.238;2022-07-22T07:15:38;6.15;;;2.00;;
71048;SDS011;58704;53.358;-6.238;2022-07-22T07:18:04;6.00;;;2.03;;
71048;SDS011;58704;53.358;-6.238;2022-07-22T07:20:29;5.73;;;2.10;;
71048;SDS011;58704;53.358;-6.238;2022-07-22T07:22:55;6.03;;;2.00;;
71048;SDS011;58704;53.358;-6.238;2022-07-22T07:25:21;7.00;;;2.70;;
71048;SDS011;58704;53.358;-6.238;2022-07-22T07:27:46;9.05;;;2.60;;
71048;SDS011;58704;53.358;-6.238;2022-07-22T07:30:12;6.67;;;1.93;;
71048;SDS011;58704;53.358;-6.238;2022-07-22T07:32:38;8.33;;;2.50;;
71048;SDS011;58704;53.358;-6.238;2022-07-22T07:35:04;9.80;;;2.60;;
71048;SDS011;58704;53.358;-6.238;2022-07-22T07:37:30;6.63;;;2.17;;
71048;SDS011;58704;53.358;-6.238;2022-07-22T07:39:55;6.87;;;2.23;;
71048;SDS011;58704;53.358;-6.238;2022-07-22T07:42:21;7.85;;;2.35;;
71048;SDS011;58704;53.358;-6.238;2022-07-22T07:44:46;8.83;;;2.10;;
71048;SDS011;58704;53.358;-6.238;2022-07-22T07:47:12;6.20;;;1.97;;
71048;SDS011;58704;53.358;-6.238;2022-07-22T07:49:42;9.70;;;1.90;;
71048;SDS011;58704;53.358;-6.238;2022-07-22T07:52:08;6.95;;;2.13;;
71048;SDS011;58704;53.358;-6.238;2022-07-22T07:54:34;8.57;;;2.03;;
71048;SDS011;58704;53.358;-6.238;2022-07-22T07:56:59;5.23;;;2.10;;
71048;SDS011;58704;53.358;-6.238;2022-07-22T07:59:24;10.67;;;2.03;;
71048;SDS011;58704;53.358;-6.238;2022-07-22T08:01:50;11.33;;;2.97;;
71048;SDS011;58704;53.358;-6.238;2022-07-22T08:04:15;7.15;;;2.50;;
71048;SDS011;58704;53.358;-6.238;2022-07-22T08:06:40;8.83;;;2.60;;
71048;SDS011;58704;53.358;-6.238;2022-07-22T08:09:06;11.80;;;2.70;;
71048;SDS011;58704;53.358;-6.238;2022-07-22T08:11:31;12.07;;;3.03;;
71048;SDS011;58704;53.358;-6.238;2022-07-22T08:13:57;9.60;;;2.83;;
71048;SDS011;58704;53.358;-6.238;2022-07-22T08:16:22;6.37;;;2.10;;
71048;SDS011;58704;53.358;-6.238;2022-07-22T08:18:48;7.90;;;2.23;;
71048;SDS011;58704;53.358;-6.238;2022-07-22T08:21:13;8.00;;;2.33;;
71048;SDS011;58704;53.358;-6.238;2022-07-22T08:23:38;10.52;;;2.58;;
71048;SDS011;58704;53.358;-6.238;2022-07-22T08:26:04;8.53;;;2.40;;
71048;SDS011;58704;53.358;-6.238;2022-07-22T08:28:30;10.90;;;2.67;;
71048;SDS011;58704;53.358;-6.238;2022-07-22T08:30:56;13.32;;;2.47;;
71048;SDS011;58704;53.358;-6.238;2022-07-22T08:33:21;7.47;;;2.20;;
71048;SDS011;58704;53.358;-6.238;2022-07-22T08:35:47;8.65;;;2.63;;
71048;SDS011;58704;53.358;-6.238;2022-07-22T08:38:12;6.17;;;1.90;;
71048;SDS011;58704;53.358;-6.238;2022-07-22T08:40:38;9.37;;;2.07;;
71048;SDS011;58704;53.358;-6.238;2022-07-22T08:43:03;6.43;;;2.07;;
71048;SDS011;58704;53.358;-6.238;2022-07-22T08:45:29;5.00;;;1.30;;
71048;SDS011;58704;53.358;-6.238;2022-07-22T08:47:55;5.07;;;1.85;;
71048;SDS011;58704;53.358;-6.238;2022-07-22T08:50:21;5.47;;;1.80;;
71048;SDS011;58704;53.358;-6.238;2022-07-22T08:52:47;13.25;;;2.10;;
71048;SDS011;58704;53.358;-6.238;2022-07-22T08:55:12;6.97;;;1.90;;
71048;SDS011;58704;53.358;-6.238;2022-07-22T08:57:43;6.80;;;2.15;;
71048;SDS011;58704;53.358;-6.238;2022-07-22T09:00:10;7.40;;;1.55;;
71048;SDS011;58704;53.358;-6.238;2022-07-22T09:02:39;5.17;;;1.37;;
71048;SDS011;58704;53.358;-6.238;2022-07-22T09:05:06;8.07;;;2.00;;
71048;SDS011;58704;53.358;-6.238;2022-07-22T09:07:33;6.40;;;1.73;;
71048;SDS011;58704;53.358;-6.238;2022-07-22T09:10:01;5.13;;;1.60;;
71048;SDS011;58704;53.358;-6.238;2022-07-22T09:12:50;6.07;;;1.75;;
71048;SDS011;58704;53.358;-6.238;2022-07-22T09:15:24;5.83;;;1.83;;
71048;SDS011;58704;53.358;-6.238;2022-07-22T09:18:04;6.38;;;1.63;;
71048;SDS011;58704;53.358;-6.238;2022-07-22T09:20:30;4.10;;;1.55;;
71048;SDS011;58704;53.358;-6.238;2022-07-22T09:22:57;3.80;;;1.30;;
71048;SDS011;58704;53.358;-6.238;2022-07-22T09:30:33;6.18;;;1.75;;
71048;SDS011;58704;53.358;-6.238;2022-07-22T09:33:00;4.90;;;1.40;;
71048;SDS011;58704;53.358;-6.238;2022-07-22T09:35:26;6.40;;;1.50;;
71048;SDS011;58704;53.358;-6.238;2022-07-22T09:37:54;4.75;;;1.10;;
71048;SDS011;58704;53.358;-6.238;2022-07-22T09:40:26;4.15;;;1.52;;
71048;SDS011;58704;53.358;-6.238;2022-07-22T09:42:59;4.77;;;1.60;;
71048;SDS011;58704;53.358;-6.238;2022-07-22T09:45:27;6.13;;;1.60;;
71048;SDS011;58704;53.358;-6.238;2022-07-22T09:47:54;8.60;;;1.60;;
71048;SDS011;58704;53.358;-6.238;2022-07-22T09:50:31;4.35;;;1.48;;
71048;SDS011;58704;53.358;-6.238;2022-07-22T09:52:58;3.17;;;1.35;;
71048;SDS011;58704;53.358;-6.238;2022-07-22T09:55:25;5.00;;;1.40;;
71048;SDS011;58704;53.358;-6.238;2022-07-22T09:57:52;3.92;;;1.45;;
71048;SDS011;58704;53.358;-6.238;2022-07-22T10:00:19;5.65;;;1.88;;
71048;SDS011;58704;53.358;-6.238;2022-07-22T10:02:50;4.10;;;1.35;;
71048;SDS011;58704;53.358;-6.238;2022-07-22T10:05:27;4.93;;;1.30;;
71048;SDS011;58704;53.358;-6.238;2022-07-22T10:07:56;5.90;;;1.40;;
71048;SDS011;58704;53.358;-6.238;2022-07-22T10:10:23;3.03;;;1.67;;
71048;SDS011;58704;53.358;-6.238;2022-07-22T10:12:51;5.90;;;1.80;;
71048;SDS011;58704;53.358;-6.238;2022-07-22T10:15:19;5.65;;;1.92;;
71048;SDS011;58704;53.358;-6.238;2022-07-22T10:17:46;6.50;;;1.63;;
71048;SDS011;58704;53.358;-6.238;2022-07-22T10:20:15;4.07;;;1.37;;
71048;SDS011;58704;53.358;-6.238;2022-07-22T10:25:11;3.05;;;1.40;;
71048;SDS011;58704;53.358;-6.238;2022-07-22T10:27:44;3.72;;;1.40;;
71048;SDS011;58704;53.358;-6.238;2022-07-22T10:30:09;3.53;;;1.13;;
71048;SDS011;58704;53.358;-6.238;2022-07-22T10:32:35;6.57;;;1.47;;
71048;SDS011;58704;53.358;-6.238;2022-07-22T10:45:26;2.58;;;1.50;;
71048;SDS011;58704;53.358;-6.238;2022-07-22T10:47:54;4.50;;;1.55;;
71048;SDS011;58704;53.358;-6.238;2022-07-22T10:55:38;4.88;;;1.60;;
71048;SDS011;58704;53.358;-6.238;2022-07-22T11:00:57;2.78;;;1.40;;
71048;SDS011;58704;53.358;-6.238;2022-07-22T11:03:24;4.93;;;1.77;;
71048;SDS011;58704;53.358;-6.238;2022-07-22T11:05:50;5.32;;;1.55;;
71048;SDS011;58704;53.358;-6.238;2022-07-22T11:08:16;4.25;;;1.48;;
71048;SDS011;58704;53.358;-6.238;2022-07-22T11:10:49;4.72;;;1.48;;
71048;SDS011;58704;53.358;-6.238;2022-07-22T11:13:31;2.47;;;1.17;;
71048;SDS011;58704;53.358;-6.238;2022-07-22T11:18:50;2.90;;;1.17;;
71048;SDS011;58704;53.358;-6.238;2022-07-22T11:21:17;3.05;;;1.20;;
71048;SDS011;58704;53.358;-6.238;2022-07-22T11:23:44;2.40;;;1.10;;
71048;SDS011;58704;53.358;-6.238;2022-07-22T11:26:10;3.60;;;1.00;;
71048;SDS011;58704;53.358;-6.238;2022-07-22T11:28:42;2.20;;;1.10;;
71048;SDS011;58704;53.358;-6.238;2022-07-22T11:31:08;3.05;;;1.20;;
71048;SDS011;58704;53.358;-6.238;2022-07-22T11:33:34;2.55;;;1.25;;
71048;SDS011;58704;53.358;-6.238;2022-07-22T11:36:04;3.67;;;1.43;;
71048;SDS011;58704;53.358;-6.238;2022-07-22T11:38:44;3.50;;;1.20;;
71048;SDS011;58704;53.358;-6.238;2022-07-22T11:41:12;7.63;;;1.42;;
71048;SDS011;58704;53.358;-6.238;2022-07-22T11:43:42;4.75;;;1.20;;
71048;SDS011;58704;53.358;-6.238;2022-07-22T11:46:08;5.13;;;1.27;;
71048;SDS011;58704;53.358;-6.238;2022-07-22T11:48:33;2.70;;;1.20;;
71048;SDS011;58704;53.358;-6.238;2022-07-22T11:51:00;3.60;;;1.50;;
71048;SDS011;58704;53.358;-6.238;2022-07-22T11:53:26;10.73;;;1.77;;
71048;SDS011;58704;53.358;-6.238;2022-07-22T11:55:55;5.33;;;1.87;;
71048;SDS011;58704;53.358;-6.238;2022-07-22T11:58:38;6.18;;;1.55;;
71048;SDS011;58704;53.358;-6.238;2022-07-22T12:01:06;3.13;;;1.50;;
71048;SDS011;58704;53.358;-6.238;2022-07-22T12:03:33;5.10;;;1.45;;
71048;SDS011;58704;53.358;-6.238;2022-07-22T12:06:01;3.00;;;1.23;;
71048;SDS011;58704;53.358;-6.238;2022-07-22T12:08:27;4.23;;;1.30;;
71048;SDS011;58704;53.358;-6.238;2022-07-22T12:10:54;3.35;;;1.42;;
71048;SDS011;58704;53.358;-6.238;2022-07-22T12:13:21;3.33;;;1.20;;
71048;SDS011;58704;53.358;-6.238;2022-07-22T12:15:46;4.17;;;1.20;;
71048;SDS011;58704;53.358;-6.238;2022-07-22T12:18:19;3.15;;;1.50;;
71048;SDS011;58704;53.358;-6.238;2022-07-22T12:20:48;7.73;;;1.53;;
71048;SDS011;58704;53.358;-6.238;2022-07-22T12:23:14;2.63;;;1.38;;
71048;SDS011;58704;53.358;-6.238;2022-07-22T12:25:59;4.72;;;1.92;;
71048;SDS011;58704;53.358;-6.238;2022-07-22T12:28:25;5.53;;;1.33;;
71048;SDS011;58704;53.358;-6.238;2022-07-22T12:30:52;4.80;;;1.70;;
71048;SDS011;58704;53.358;-6.238;2022-07-22T12:33:19;6.60;;;2.00;;
71048;SDS011;58704;53.358;-6.238;2022-07-22T12:35:57;7.90;;;2.00;;
71048;SDS011;58704;53.358;-6.238;2022-07-22T12:38:27;4.32;;;1.55;;
71048;SDS011;58704;53.358;-6.238;2022-07-22T12:40:52;5.13;;;1.57;;
71048;SDS011;58704;53.358;-6.238;2022-07-22T12:43:23;4.90;;;1.40;;
71048;SDS011;58704;53.358;-6.238;2022-07-22T12:45:49;9.67;;;1.77;;
71048;SDS011;58704;53.358;-6.238;2022-07-22T12:48:15;4.97;;;1.27;;
71048;SDS011;58704;53.358;-6.238;2022-07-22T12:50:43;6.17;;;1.33;;
71048;SDS011;58704;53.358;-6.238;2022-07-22T12:53:22;2.30;;;1.08;;
71048;SDS011;58704;53.358;-6.238;2022-07-22T12:58:16;2.00;;;1.33;;
71048;SDS011;58704;53.358;-6.238;2022-07-22T13:00:43;3.53;;;1.30;;
71048;SDS011;58704;53.358;-6.238;2022-07-22T13:03:12;5.23;;;1.17;;
71048;SDS011;58704;53.358;-6.238;2022-07-22T13:05:38;6.05;;;1.23;;
71048;SDS011;58704;53.358;-6.238;2022-07-22T13:08:03;3.27;;;1.50;;
71048;SDS011;58704;53.358;-6.238;2022-07-22T13:10:29;5.88;;;1.33;;
71048;SDS011;58704;53.358;-6.238;2022-07-22T13:12:55;8.40;;;1.60;;
71048;SDS011;58704;53.358;-6.238;2022-07-22T13:15:21;5.47;;;1.63;;
71048;SDS011;58704;53.358;-6.238;2022-07-22T13:17:47;6.15;;;1.70;;
71048;SDS011;58704;53.358;-6.238;2022-07-22T13:20:14;3.53;;;1.35;;
71048;SDS011;58704;53.358;-6.238;2022-07-22T13:22:41;8.00;;;1.47;;
71048;SDS011;58704;53.358;-6.238;2022-07-22T13:25:07;3.85;;;1.30;;
71048;SDS011;58704;53.358;-6.238;2022-07-22T13:27:33;2.23;;;1.13;;
71048;SDS011;58704;53.358;-6.238;2022-07-22T13:29:58;5.03;;;1.50;;
71048;SDS011;58704;53.358;-6.238;2022-07-22T13:32:23;12.57;;;1.60;;
71048;SDS011;58704;53.358;-6.238;2022-07-22T13:34:49;4.73;;;1.60;;
71048;SDS011;58704;53.358;-6.238;2022-07-22T13:37:14;3.57;;;1.10;;
71048;SDS011;58704;53.358;-6.238;2022-07-22T13:39:40;3.80;;;1.10;;
71048;SDS011;58704;53.358;-6.238;2022-07-22T13:42:07;4.18;;;1.50;;
71048;SDS011;58704;53.358;-6.238;2022-07-22T13:44:32;5.30;;;1.53;;
71048;SDS011;58704;53.358;-6.238;2022-07-22T13:47:00;4.28;;;1.30;;
71048;SDS011;58704;53.358;-6.238;2022-07-22T13:49:25;3.60;;;1.60;;
71048;SDS011;58704;53.358;-6.238;2022-07-22T13:51:51;5.20;;;1.90;;
71048;SDS011;58704;53.358;-6.238;2022-07-22T13:54:16;4.10;;;1.77;;
71048;SDS011;58704;53.358;-6.238;2022-07-22T13:56:43;3.60;;;1.70;;
71048;SDS011;58704;53.358;-6.238;2022-07-22T13:59:09;3.67;;;1.70;;
71048;SDS011;58704;53.358;-6.238;2022-07-22T14:01:34;6.90;;;1.90;;
71048;SDS011;58704;53.358;-6.238;2022-07-22T14:04:01;4.72;;;2.00;;
71048;SDS011;58704;53.358;-6.238;2022-07-22T14:06:27;6.47;;;2.20;;
71048;SDS011;58704;53.358;-6.238;2022-07-22T14:08:53;4.47;;;2.20;;
71048;SDS011;58704;53.358;-6.238;2022-07-22T14:11:18;8.10;;;2.00;;
71048;SDS011;58704;53.358;-6.238;2022-07-22T14:13:43;3.25;;;1.77;;
71048;SDS011;58704;53.358;-6.238;2022-07-22T14:16:09;11.30;;;1.83;;
71048;SDS011;58704;53.358;-6.238;2022-07-22T14:18:53;10.68;;;1.73;;
71048;SDS011;58704;53.358;-6.238;2022-07-22T14:21:18;4.27;;;1.53;;
71048;SDS011;58704;53.358;-6.238;2022-07-22T14:23:43;5.90;;;2.00;;
71048;SDS011;58704;53.358;-6.238;2022-07-22T14:26:09;2.73;;;1.10;;
71048;SDS011;58704;53.358;-6.238;2022-07-22T14:28:34;7.43;;;1.80;;
71048;SDS011;58704;53.358;-6.238;2022-07-22T14:30:59;5.25;;;1.55;;
71048;SDS011;58704;53.358;-6.238;2022-07-22T14:33:25;3.43;;;1.57;;
71048;SDS011;58704;53.358;-6.238;2022-07-22T14:35:50;4.63;;;1.43;;
71048;SDS011;58704;53.358;-6.238;2022-07-22T14:38:16;5.90;;;1.40;;
71048;SDS011;58704;53.358;-6.238;2022-07-22T14:40:42;5.90;;;1.67;;
71048;SDS011;58704;53.358;-6.238;2022-07-22T14:43:07;3.70;;;1.30;;
71048;SDS011;58704;53.358;-6.238;2022-07-22T14:45:33;4.47;;;1.20;;
71048;SDS011;58704;53.358;-6.238;2022-07-22T14:47:58;3.20;;;1.40;;
71048;SDS011;58704;53.358;-6.238;2022-07-22T14:50:23;3.47;;;1.30;;
71048;SDS011;58704;53.358;-6.238;2022-07-22T14:52:49;3.20;;;1.20;;
71048;SDS011;58704;53.358;-6.238;2022-07-22T14:55:14;3.50;;;1.30;;
71048;SDS011;58704;53.358;-6.238;2022-07-22T14:57:40;5.28;;;2.00;;
71048;SDS011;58704;53.358;-6.238;2022-07-22T15:00:06;4.73;;;1.67;;